Enid, OK (73702)

10:17 AM CST on December 06, 2016 (GMT -0600)
Beverly Drive | | Change Station

Elev 1271 ft 36.38 °N, 97.90 °W | Updated 13 seconds ago

Mostly Cloudy
Mostly Cloudy
35.7 °F
Feels Like 26 °F
N
16.0
Wind Variable Wind from NNW

Today
High -- | Low -- °F
--% Chance of Precip.
Yesterday
High -- | Low -- °F
Precip. -- in
Pressure 30.16 in
Visibility 10.0 miles
Clouds Few 15000 ft
Mostly Cloudy 20000 ft
Windchill 26 °F
Dew Point 22 °F
Humidity 58%
Rainfall 0.00 in
Snow Depth Not available.
7:29 AM 5:16 PM
Waxing Crescent, 43% visible
METAR KEND 061558Z COR 36018KT 10SM FEW150 BKN200 02/M05 A3012 RMK AO2A SLP211 T00151055 $ COR 1601
Pressure 30.16 in
Visibility 10.0 miles
Clouds Few 15000 ft
Mostly Cloudy 20000 ft
Windchill 26 °F
Dew Point 22 °F
Humidity 58%
Rainfall 0.00 in
Snow Depth Not available.
7:29 AM 5:16 PM
Waxing Crescent, 43% visible
METAR KEND 061558Z COR 36018KT 10SM FEW150 BKN200 02/M05 A3012 RMK AO2A SLP211 T00151055 $ COR 1601

10-Day Weather Forecast

Almanac

Astronomy

Dec. 06, 2016 Rise Set
Actual Time
Civil Twilight
Nautical Twilight
Astronomical Twilight
Moon
Length of Visible Light
Length of Day
Tomorrow will be .
, % of the Moon is Illuminated

Today's Extremes

State Highs State Lows

Community

WunderPhotos

Upload Photos

1,955,969 photos uploaded!

WunderBlog® & News

Nearby

Air Quality

  Air Quality AQ Index Pollutant
Not available.

Snow Depth

Station Depth Elevation

Earthquake Activity

City Distance Mag. Time & Date
Minimum magnitude displayed is 2.5.

Coastal Water Temperatures

Place Temperature

Stations

Nearby Weather Stations

Station Location Temp. Windchill Dew Point Humidity Wind Precip. Elev Updated Type
                   

Watches & Warnings

There are currently no watches in effect.